Latest Coastal Weather Observations for Cooktown

IDQ60701

Issued at 6:35 pm EST Tuesday 29 July 2014 (issued every 10 minutes, with the page automatically refreshed every 10 minutes)

About coastal observations | Map of coastal stations | Coastal observations for QLD | Marine services | Other Formats
Station Details ID: 031209 Name: COOKTOWN AIRPORT Lat: -15.45 Lon: 145.19 Height: 4.8 m
Data from the previous 72 hours. | See also: Recent months at Cooktown
Date/Time
EST
Temp

°C
Wind Pressure Rain
since 9am
mm
Weather Cloud Vis
km
Sea
Height
m
Swell
Dir
 
Speed
knots
Gust
knots
hPa Trend Height
m
Period
s
Dir
29/06:30pm 22.2 SE 7 15 1017.6 - 0.2 - Partly cloudy 10 - - - -
29/06:00pm 22.8 ESE 10 14 1017.4 - 0.2 - - 10 - - - -
29/05:30pm 23.0 SE 8 11 1017.3 - 0.2 - - 10 - - - -
29/03:00pm 24.4 SE 10 20 1017.6 S 0.0 Fine Partly cloudy 35 - - - -
29/02:30pm 24.8 SE 11 18 1017.7 - 0.0 - Partly cloudy 10 - - - -
29/02:00pm 24.7 SSE 11 19 1018.0 - 0.0 - Partly cloudy 10 - - - -
29/01:30pm 25.7 ESE 15 22 1018.5 - 0.0 - Partly cloudy 10 - - - -
29/01:00pm 25.6 ESE 14 24 1018.7 - 0.0 - Partly cloudy 10 - - - -
29/12:39pm 24.8 ESE 15 25 1018.9 - 0.0 - Partly cloudy 10 - - - -
29/12:30pm 25.2 SE 14 22 1019.0 - 0.0 - Partly cloudy 10 - - - -
29/12:00pm 24.2 ESE 14 21 1019.4 - 0.0 - Cloudy 10 - - - -
29/11:30am 24.6 SE 11 17 1019.6 - 0.0 - Partly cloudy 10 - - - -
29/11:00am 25.1 ESE 15 22 1019.8 - 0.0 - Partly cloudy 10 - - - -
29/10:30am 23.7 ESE 13 23 1020.2 - 0.0 - Partly cloudy 10 - - - -
29/10:00am 24.1 ESE 11 17 1020.3 - 0.0 - Partly cloudy 10 - - - -
29/09:30am 24.4 ESE 11 17 1020.3 - 0.0 - Partly cloudy 10 - - - -
29/09:00am 23.2 ESE 10 15 1020.0 R 0.2 Fine Mostly clear 35 - - - -
29/08:30am 23.2 ESE 9 16 1019.9 - 0.2 - - 10 - - - -
29/08:00am 22.0 ESE 7 9 1019.7 - 0.2 - - 10 - - - -
29/07:30am 21.6 SE 6 11 1019.3 - 0.2 - - 10 - - - -
29/07:00am 21.5 SE 7 10 1019.0 - 0.2 - Partly cloudy 10 - - - -
29/06:30am 21.6 SE 7 11 1018.5 - 0.2 - Partly cloudy 10 - - - -
29/06:00am 21.7 SE 6 10 1018.1 - 0.2 - Partly cloudy 10 - - - -
29/05:30am 21.9 SE 6 11 1017.8 - 0.2 - Partly cloudy 10 - - - -
29/05:00am 22.1 SE 8 13 1017.5 - 0.2 - Partly cloudy 10 - - - -
29/04:30am 22.4 SE 8 12 1017.3 - 0.2 - Partly cloudy 10 - - - -
29/04:00am 22.3 SE 8 14 1017.2 - 0.2 - Partly cloudy 10 - - - -
29/03:30am 22.3 SE 8 13 1017.2 - 0.2 - - 10 - - - -
29/03:00am 22.7 SE 10 17 1017.2 - 0.2 - Cloudy 10 - - - -
29/02:30am 22.4 ESE 10 16 1017.3 - 0.2 - Partly cloudy 10 - - - -
29/02:00am 22.2 SE 7 13 1017.5 - 0.2 - Partly cloudy 10 - - - -
29/01:30am 22.0 SE 8 11 1017.8 - 0.2 - Partly cloudy 10 - - - -
29/01:00am 21.6 SE 6 11 1018.3 - 0.2 - Partly cloudy 10 - - - -
29/12:30am 21.8 ESE 7 12 1018.6 - 0.2 - Partly cloudy 10 - - - -
29/12:00am 22.2 SE 9 13 1018.9 - 0.2 - Mostly cloudy 10 - - - -
 
Date/Time
EST
Temp

°C
Wind Pressure Rain
since 9am
mm
Weather Cloud Vis
km
Sea
Height
m
Swell
Dir
 
Speed
knots
Gust
knots
hPa Trend Height
m
Period
s
Dir
28/11:30pm 22.0 SE 6 9 1019.0 - 0.2 - Partly cloudy 10 - - - -
28/11:00pm 22.0 SE 6 9 1018.9 - 0.2 - Partly cloudy 10 - - - -
28/10:30pm 22.1 SE 6 10 1018.9 - 0.2 - Partly cloudy 10 - - - -
28/10:19pm 22.2 SE 8 13 1018.9 - 0.2 - Partly cloudy 10 - - - -
28/10:00pm 22.3 SE 6 9 1019.0 - 0.2 - Partly cloudy 10 - - - -
28/09:49pm 22.3 ESE 7 9 1019.1 - 0.2 - Partly cloudy 10 - - - -
28/09:30pm 22.1 SE 5 9 1019.0 - 0.2 - Partly cloudy 10 - - - -
28/09:00pm 22.4 SE 6 9 1018.8 - 0.2 - Mostly cloudy 10 - - - -
28/08:30pm 22.5 SE 7 11 1018.7 - 0.0 - Partly cloudy 10 - - - -
28/08:00pm 22.4 SE 6 8 1018.5 - 0.0 - Partly cloudy 10 - - - -
28/07:30pm 22.4 SE 6 11 1018.3 - 0.0 - Partly cloudy 10 - - - -
28/07:00pm 22.5 SE 7 11 1018.1 - 0.0 - Partly cloudy 10 - - - -
28/06:30pm 23.0 SE 7 11 1017.7 - 0.0 - Partly cloudy 10 - - - -
28/06:00pm 23.5 ESE 9 13 1017.4 - 0.0 - Cloudy 10 - - - -
28/05:30pm 23.7 SE 11 19 1017.2 - 0.0 - Partly cloudy 10 - - - -
28/05:00pm 24.2 ESE 10 15 1017.0 - 0.0 - Partly cloudy 10 - - - -
28/04:30pm 24.5 SE 12 19 1017.0 - 0.0 - Partly cloudy 10 - - - -
28/04:00pm 24.8 SE 11 22 1016.9 - 0.0 - Partly cloudy 10 - - - -
28/03:30pm 25.7 SE 12 21 1017.0 - 0.0 - - 10 - - - -
28/03:00pm 26.0 ESE 14 18 1017.0 F 0.0 Fine Mostly clear 40 - - - -
28/02:30pm 26.1 ESE 14 20 1017.2 - 0.0 - - 10 - - - -
28/02:02pm 25.7 ESE 15 25 1017.4 - 0.0 - - 10 - - - -
28/02:00pm 26.1 ESE 14 25 1017.4 - 0.0 - - 10 - - - -
28/01:36pm 26.5 ESE 15 25 1017.7 - 0.0 - - 10 - - - -
28/01:30pm 26.4 SE 14 21 1017.7 - 0.0 - - 10 - - - -
28/01:00pm 25.9 ESE 13 22 1018.1 - 0.0 - - 10 - - - -
28/12:41pm 26.7 ESE 15 25 1018.3 - 0.0 - - 10 - - - -
28/12:30pm 25.9 ESE 13 21 1018.4 - 0.0 - - 10 - - - -
28/12:00pm 26.2 SE 14 21 1018.9 - 0.0 - - 10 - - - -
28/11:30am 26.9 ESE 12 19 1019.2 - 0.0 - - 10 - - - -
28/11:00am 25.9 ESE 18 28 1019.5 - 0.0 - - 10 - - - -
28/10:52am 25.9 ESE 17 28 1019.5 - 0.0 - - 10 - - - -
28/10:30am 25.9 E 18 25 1019.6 - 0.0 - - 10 - - - -
28/10:00am 26.0 ESE 16 27 1019.6 - 0.0 - - 10 - - - -
28/09:39am 25.4 ESE 15 27 1019.5 - 0.0 - - 10 - - - -
28/09:30am 25.3 E 16 24 1019.6 - 0.0 - - 10 - - - -
28/09:00am 24.8 ESE 13 23 1019.4 R 0.0 Fine Mostly clear 35 - - - -
28/08:30am 24.2 ESE 14 23 1019.2 - 0.0 - - 10 - - - -
28/08:00am 23.8 ESE 14 22 1018.9 - 0.0 - Partly cloudy 10 - - - -
28/07:30am 23.4 ESE 14 23 1018.5 - 0.0 - Partly cloudy 10 - - - -
28/07:00am 22.6 ESE 14 22 1018.1 - 0.0 - - 10 - - - -
28/06:30am 22.4 ESE 12 20 1017.7 - 0.0 - - 10 - - - -
28/06:00am 22.5 ESE 13 18 1017.4 - 0.0 - Mostly clear 10 - - - -
28/05:30am 22.6 ESE 13 20 1017.2 - 0.0 - Partly cloudy 10 - - - -
28/05:00am 22.8 ESE 13 21 1017.0 - 0.0 - Partly cloudy 10 - - - -
28/04:30am 22.9 ESE 14 23 1017.1 - 0.0 - Partly cloudy 10 - - - -
28/04:00am 23.0 ESE 13 19 1017.0 - 0.0 - - 10 - - - -
28/03:30am 22.6 ESE 13 22 1016.8 - 0.0 - - 10 - - - -
28/03:00am 22.9 ESE 13 24 1017.2 - 0.0 - Mostly clear 10 - - - -
28/02:30am 22.7 ESE 11 19 1017.4 - 0.0 - Partly cloudy 10 - - - -
28/02:00am 22.8 ESE 14 22 1017.7 - 0.0 - Partly cloudy 10 - - - -
28/01:51am 22.9 ESE 15 25 1017.8 - 0.0 - Partly cloudy 10 - - - -
28/01:30am 22.8 ESE 12 18 1018.1 - 0.0 - Partly cloudy 10 - - - -
28/01:00am 22.6 ESE 11 17 1018.5 - 0.0 - Partly cloudy 10 - - - -
28/12:30am 22.7 ESE 11 16 1018.8 - 0.0 - Partly cloudy 10 - - - -
28/12:00am 22.9 ESE 11 18 1019.1 - 0.0 - Cloudy 10 - - - -
 
Date/Time
EST
Temp

°C
Wind Pressure Rain
since 9am
mm
Weather Cloud Vis
km
Sea
Height
m
Swell
Dir
 
Speed
knots
Gust
knots
hPa Trend Height
m
Period
s
Dir
27/11:30pm 22.9 ESE 10 16 1019.3 - 0.0 - Partly cloudy 10 - - - -
27/11:00pm 23.0 ESE 12 21 1019.4 - 0.0 - Partly cloudy 10 - - - -
27/10:30pm 22.9 ESE 10 19 1019.8 - 0.0 - Partly cloudy 10 - - - -
27/10:00pm 23.2 ESE 10 18 1020.1 - 0.0 - Partly cloudy 10 - - - -
27/09:30pm 22.9 ESE 10 17 1020.0 - 0.0 - Partly cloudy 10 - - - -
27/09:00pm 23.3 ESE 13 21 1019.9 - 0.0 - Mostly clear 10 - - - -
27/08:30pm 23.0 ESE 10 16 1019.8 - 0.0 - Partly cloudy 10 - - - -
27/08:00pm 22.4 SE 8 12 1019.6 - 0.0 - Partly cloudy 10 - - - -
27/07:30pm 22.9 ESE 9 16 1019.3 - 0.0 - Partly cloudy 10 - - - -
27/07:00pm 22.9 SE 8 13 1018.9 - 0.0 - - 10 - - - -
27/06:30pm 22.9 ESE 9 14 1018.7 - 0.0 - - 10 - - - -
27/06:00pm 23.4 ESE 12 17 1018.3 - 0.0 - - 10 - - - -
27/05:30pm 23.7 SE 9 16 1018.1 - 0.0 - Partly cloudy 10 - - - -
27/05:00pm 24.2 SE 11 17 1017.8 - 0.0 - Partly cloudy 10 - - - -
27/04:30pm 25.0 SE 13 21 1017.5 - 0.0 - Partly cloudy 10 - - - -
27/04:00pm 24.9 ESE 14 21 1017.1 - 0.0 - Partly cloudy 10 - - - -
27/03:30pm 25.3 ESE 14 23 1017.1 - 0.0 - - 10 - - - -
27/03:06pm 25.2 ESE 12 23 1017.0 - 0.0 - Partly cloudy 10 - - - -
27/03:00pm 24.8 ESE 11 17 1017.1 - 0.0 - Cloudy 10 - - - -
27/02:52pm 24.6 SE 13 21 1017.1 - 0.0 - Partly cloudy 10 - - - -
27/02:30pm 24.7 ESE 12 19 1017.3 - 0.0 - Partly cloudy 10 - - - -
27/02:00pm 25.3 SE 12 19 1017.5 - 0.0 - Partly cloudy 10 - - - -
27/01:47pm 25.5 ESE 14 21 1017.6 - 0.0 - Partly cloudy 10 - - - -
27/01:37pm 26.6 ESE 12 19 1017.6 - 0.0 - Partly cloudy 10 - - - -
27/01:30pm 25.7 ESE 11 17 1017.8 - 0.0 - Partly cloudy 10 - - - -
27/01:00pm 25.1 ESE 12 19 1018.2 - 0.0 - Partly cloudy 10 - - - -
27/12:30pm 26.0 SE 13 23 1018.6 - 0.0 - Partly cloudy 10 - - - -
27/12:00pm 26.4 ESE 13 24 1019.0 - 0.0 - Cloudy 10 - - - -
27/11:30am 26.3 E 16 24 1019.2 - 0.0 - Partly cloudy 10 - - - -
27/11:17am 25.8 ESE 16 25 1019.3 - 0.0 - Partly cloudy 10 - - - -
27/11:00am 26.3 E 17 23 1019.4 - 0.0 - Partly cloudy 10 - - - -
27/10:30am 25.1 ESE 14 22 1019.6 - 0.0 - Partly cloudy 10 - - - -
27/10:08am 24.3 ESE 11 18 1019.7 - 0.0 - Partly cloudy 10 - - - -
27/10:00am 24.2 SE 10 18 1019.7 - 0.0 - Partly cloudy 10 - - - -
27/09:52am 23.5 SE 9 13 1019.6 - 0.0 - Partly cloudy 10 - - - -
27/09:30am 23.0 SE 9 17 1019.7 - 0.0 - Partly cloudy 10 - - - -
27/09:09am 23.1 SE 9 14 1019.7 - 0.0 - Partly cloudy 10 - - - -
27/09:01am 22.4 SE 8 12 1019.7 - 0.0 - Partly cloudy 7 - - - -
27/09:00am 22.2 SE 8 12 1019.7 R 0.6 Rain Mostly cloudy 20 - - - -
27/08:50am 22.4 SE 9 13 1019.6 - 0.4 - Partly cloudy 5 - - - -
27/08:30am 22.8 SE 8 15 1019.1 - 0.0 - Partly cloudy 10 - - - -
27/08:20am 22.7 SE 7 12 1019.1 - 0.0 - Partly cloudy 10 - - - -
27/08:00am 22.5 SE 8 13 1019.1 - 0.0 - Partly cloudy 10 - - - -
27/07:30am 22.4 SE 8 16 1018.7 - 0.0 - Partly cloudy 10 - - - -
27/07:21am 22.3 SE 8 14 1018.6 - 0.0 - Partly cloudy 10 - - - -
27/07:16am 22.3 SE 8 14 1018.6 - 0.0 - Partly cloudy 10 - - - -
27/07:03am 22.1 SE 7 11 1018.5 - 0.0 - Partly cloudy 10 - - - -
27/07:00am 22.1 SE 8 12 1018.5 - 0.0 - Partly cloudy 10 - - - -
27/06:32am 21.8 SE 7 12 1018.4 - 0.0 - Partly cloudy 10 - - - -
27/06:30am 21.8 SE 7 12 1018.4 - 0.0 - Partly cloudy 10 - - - -
27/06:00am 22.3 SE 8 19 1018.1 - 0.0 - Cloudy 10 - - - -
27/05:30am 22.2 SE 8 13 1018.0 - 0.0 - Partly cloudy 10 - - - -
27/05:26am 22.2 SE 8 13 1017.9 - 0.0 - Partly cloudy 10 - - - -
27/05:00am 22.6 SE 8 13 1017.8 - 0.0 - Partly cloudy 10 - - - -
27/04:52am 22.5 SE 7 14 1017.8 - 0.0 - Partly cloudy 10 - - - -
27/04:34am 22.4 SE 7 10 1017.8 - 0.0 - Partly cloudy 10 - - - -
27/04:30am 22.4 SE 7 10 1017.8 - 0.0 - Partly cloudy 10 - - - -
27/04:00am 22.4 SE 9 15 1017.7 - 0.0 - Partly cloudy 10 - - - -
27/03:30am 22.4 SE 8 12 1017.8 - 0.0 - Partly cloudy 10 - - - -
27/03:00am 22.2 SE 8 15 1017.9 - 0.0 - Cloudy 10 - - - -
27/02:30am 22.0 SE 8 13 1018.3 - 0.0 - Partly cloudy 10 - - - -
27/02:00am 21.9 SE 8 13 1018.7 - 0.0 - Partly cloudy 10 - - - -
27/01:30am 22.1 SE 7 12 1019.2 - 0.0 - Partly cloudy 10 - - - -
27/01:00am 22.3 SE 7 13 1019.5 - 0.0 - Partly cloudy 10 - - - -
27/12:30am 22.0 SE 7 9 1019.7 - 0.0 - Partly cloudy 10 - - - -
27/12:00am 22.3 SE 8 12 1020.0 - 0.0 - Cloudy 10 - - - -
 
Date/Time
EST
Temp

°C
Wind Pressure Rain
since 9am
mm
Weather Cloud Vis
km
Sea
Height
m
Swell
Dir
 
Speed
knots
Gust
knots
hPa Trend Height
m
Period
s
Dir
26/11:30pm 22.3 SE 8 11 1020.3 - 0.0 - Partly cloudy 10 - - - -
26/11:17pm 22.3 SE 9 15 1020.4 - 0.0 - Partly cloudy 10 - - - -
26/11:00pm 22.5 SE 10 17 1020.4 - 0.0 - Partly cloudy 10 - - - -
26/10:30pm 22.6 SE 7 12 1020.4 - 0.0 - Partly cloudy 10 - - - -
26/10:00pm 22.7 SE 7 11 1020.3 - 0.0 - Partly cloudy 10 - - - -
26/09:53pm 22.7 ESE 7 11 1020.3 - 0.0 - Partly cloudy 10 - - - -
26/09:30pm 22.6 ESE 8 14 1020.3 - 0.0 - Partly cloudy 10 - - - -
26/09:03pm 22.4 SE 7 11 1020.4 - 0.0 - Partly cloudy 10 - - - -
26/09:00pm 22.4 SE 8 11 1020.4 - 0.0 - Partly cloudy 10 - - - -
26/08:30pm 22.5 SE 8 12 1020.3 - 0.0 - Partly cloudy 10 - - - -
26/08:00pm 22.6 SE 9 16 1020.3 - 0.0 - Partly cloudy 10 - - - -
26/07:38pm 22.7 SE 8 14 1019.9 - 0.0 - Partly cloudy 10 - - - -
26/07:33pm 22.7 SE 9 14 1019.8 - 0.0 - Partly cloudy 10 - - - -
26/07:30pm 22.7 SE 9 14 1019.8 - 0.0 - Partly cloudy 10 - - - -
26/07:00pm 22.8 SE 10 17 1019.5 - 0.0 - Partly cloudy 10 - - - -
26/06:47pm 22.7 SE 11 17 1019.5 - 0.0 - Partly cloudy 10 - - - -

Other Formats:

Comma delimited format used in spreadsheet applications
http://www.bom.gov.au/fwo/IDQ60701/IDQ60701.95283.axf

JavaScript Object Notation format (JSON) in row-major order
http://www.bom.gov.au/fwo/IDQ60701/IDQ60701.95283.json